Timberlake, Ohio
Current Conditions -  °F | °C
As of 3:45 PM on Monday 22 Dec 2014 (Local Time) from KCGF Reporting Station
Broken Clouds Broken Clouds  
Wind Chill: 39°   Ceiling: 20000
Heat Index: 45°   Visibility: 15mi
Dew Point: 34°   Wind: 10mph
Humidity: 66%   Direction: 130°SE
Pressure: 29.99"   Gusts: NA
Location:  41.6454°N, 81.4495°W
Report Text: KCGF 222045Z 13009KT 15SM FEW120 BKN200 07/01 A2999
Loading
Personal Weather Stations






























Interactive Weather Map New forecast layout! Learn more

10-Day Weather Forecast

Advertisements
Track Severe Weather on mobile